sensor_id;sensor_type;location;lat;lon;timestamp;pressure;altitude;pressure_sealevel;temperature;humidity
26112;BME280;13829;48.990;8.346;2023-05-08T00:01:05;100719.72;;;16.40;100.00
26112;BME280;13829;48.990;8.346;2023-05-08T00:03:34;100712.63;;;16.41;100.00
26112;BME280;13829;48.990;8.346;2023-05-08T00:06:03;100715.06;;;16.56;100.00
26112;BME280;13829;48.990;8.346;2023-05-08T00:08:30;100723.13;;;16.50;100.00
26112;BME280;13829;48.990;8.346;2023-05-08T00:10:57;100720.41;;;16.55;100.00
26112;BME280;13829;48.990;8.346;2023-05-08T00:13:24;100721.22;;;16.60;100.00
26112;BME280;13829;48.990;8.346;2023-05-08T00:15:51;100717.59;;;16.64;100.00
26112;BME280;13829;48.990;8.346;2023-05-08T00:18:18;100725.59;;;16.62;100.00
26112;BME280;13829;48.990;8.346;2023-05-08T00:20:46;100718.59;;;16.58;100.00
26112;BME280;13829;48.990;8.346;2023-05-08T00:23:13;100723.19;;;16.45;100.00
26112;BME280;13829;48.990;8.346;2023-05-08T00:25:40;100726.69;;;16.47;100.00
26112;BME280;13829;48.990;8.346;2023-05-08T00:28:07;100723.03;;;16.56;100.00
26112;BME280;13829;48.990;8.346;2023-05-08T00:30:34;100725.66;;;16.59;100.00
26112;BME280;13829;48.990;8.346;2023-05-08T00:33:01;100726.53;;;16.60;100.00
26112;BME280;13829;48.990;8.346;2023-05-08T00:35:28;100731.84;;;16.60;100.00
26112;BME280;13829;48.990;8.346;2023-05-08T00:37:56;100724.94;;;16.46;100.00
26112;BME280;13829;48.990;8.346;2023-05-08T00:40:23;100728.50;;;16.45;100.00
26112;BME280;13829;48.990;8.346;2023-05-08T00:42:50;100725.81;;;16.47;100.00
26112;BME280;13829;48.990;8.346;2023-05-08T00:45:17;100727.66;;;16.42;100.00
26112;BME280;13829;48.990;8.346;2023-05-08T00:47:44;100724.91;;;16.50;100.00
26112;BME280;13829;48.990;8.346;2023-05-08T00:50:12;100725.00;;;16.40;100.00
26112;BME280;13829;48.990;8.346;2023-05-08T00:52:39;100730.41;;;16.36;100.00
26112;BME280;13829;48.990;8.346;2023-05-08T00:55:08;100737.47;;;16.37;100.00
26112;BME280;13829;48.990;8.346;2023-05-08T00:57:36;100733.00;;;16.39;100.00
26112;BME280;13829;48.990;8.346;2023-05-08T01:00:05;100733.91;;;16.38;100.00
26112;BME280;13829;48.990;8.346;2023-05-08T01:02:33;100733.91;;;16.39;100.00
26112;BME280;13829;48.990;8.346;2023-05-08T01:05:01;100737.47;;;16.35;100.00
26112;BME280;13829;48.990;8.346;2023-05-08T01:07:29;100735.78;;;16.31;100.00
26112;BME280;13829;48.990;8.346;2023-05-08T01:09:56;100738.41;;;16.34;100.00
26112;BME280;13829;48.990;8.346;2023-05-08T01:12:33;100737.44;;;16.38;100.00
26112;BME280;13829;48.990;8.346;2023-05-08T01:15:10;100733.94;;;16.36;100.00
26112;BME280;13829;48.990;8.346;2023-05-08T01:18:01;100734.78;;;16.38;100.00
26112;BME280;13829;48.990;8.346;2023-05-08T01:20:45;100737.44;;;16.38;100.00
26112;BME280;13829;48.990;8.346;2023-05-08T01:27:07;100731.16;;;16.45;100.00
26112;BME280;13829;48.990;8.346;2023-05-08T01:30:14;100737.44;;;16.38;100.00
26112;BME280;13829;48.990;8.346;2023-05-08T01:32:54;100732.22;;;16.32;100.00
26112;BME280;13829;48.990;8.346;2023-05-08T01:35:29;100740.22;;;16.30;100.00
26112;BME280;13829;48.990;8.346;2023-05-08T01:38:07;100738.41;;;16.33;100.00
26112;BME280;13829;48.990;8.346;2023-05-08T01:40:47;100737.47;;;16.35;100.00
26112;BME280;13829;48.990;8.346;2023-05-08T01:43:25;100733.72;;;16.52;100.00
26112;BME280;13829;48.990;8.346;2023-05-08T01:45:58;100742.69;;;16.44;100.00
26112;BME280;13829;48.990;8.346;2023-05-08T01:48:34;100735.59;;;16.43;100.00
26112;BME280;13829;48.990;8.346;2023-05-08T01:51:13;100739.13;;;16.45;100.00
26112;BME280;13829;48.990;8.346;2023-05-08T01:53:48;100739.09;;;16.47;100.00
26112;BME280;13829;48.990;8.346;2023-05-08T01:56:22;100729.34;;;16.47;100.00
26112;BME280;13829;48.990;8.346;2023-05-08T01:58:51;100731.25;;;16.38;100.00
26112;BME280;13829;48.990;8.346;2023-05-08T02:01:23;100740.16;;;16.34;100.00
26112;BME280;13829;48.990;8.346;2023-05-08T02:03:53;100742.84;;;16.32;100.00
26112;BME280;13829;48.990;8.346;2023-05-08T02:06:22;100736.66;;;16.30;100.00
26112;BME280;13829;48.990;8.346;2023-05-08T02:08:53;100741.03;;;16.33;100.00
26112;BME280;13829;48.990;8.346;2023-05-08T02:11:22;100739.22;;;16.38;100.00
26112;BME280;13829;48.990;8.346;2023-05-08T02:13:51;100741.78;;;16.44;100.00
26112;BME280;13829;48.990;8.346;2023-05-08T02:16:20;100742.78;;;16.37;100.00
26112;BME280;13829;48.990;8.346;2023-05-08T02:18:53;100731.25;;;16.38;100.00
26112;BME280;13829;48.990;8.346;2023-05-08T02:21:22;100746.22;;;16.43;100.00
26112;BME280;13829;48.990;8.346;2023-05-08T02:23:51;100745.38;;;16.40;100.00
26112;BME280;13829;48.990;8.346;2023-05-08T02:26:22;100749.88;;;16.35;100.00
26112;BME280;13829;48.990;8.346;2023-05-08T02:28:51;100749.84;;;16.39;100.00
26112;BME280;13829;48.990;8.346;2023-05-08T02:31:19;100748.84;;;16.45;100.00
26112;BME280;13829;48.990;8.346;2023-05-08T02:33:48;100752.41;;;16.44;100.00
26112;BME280;13829;48.990;8.346;2023-05-08T02:36:19;100754.22;;;16.40;100.00
26112;BME280;13829;48.990;8.346;2023-05-08T02:38:50;100762.16;;;16.43;100.00
26112;BME280;13829;48.990;8.346;2023-05-08T02:41:20;100759.47;;;16.45;100.00
26112;BME280;13829;48.990;8.346;2023-05-08T02:43:49;100757.63;;;16.50;100.00
26112;BME280;13829;48.990;8.346;2023-05-08T02:46:23;100762.13;;;16.45;100.00
26112;BME280;13829;48.990;8.346;2023-05-08T02:49:12;100755.16;;;16.36;100.00
26112;BME280;13829;48.990;8.346;2023-05-08T02:51:53;100758.63;;;16.41;100.00
26112;BME280;13829;48.990;8.346;2023-05-08T02:54:31;100757.63;;;16.50;100.00
26112;BME280;13829;48.990;8.346;2023-05-08T02:57:08;100767.50;;;16.39;100.00
26112;BME280;13829;48.990;8.346;2023-05-08T02:59:42;100763.19;;;16.30;100.00
26112;BME280;13829;48.990;8.346;2023-05-08T03:02:17;100766.00;;;16.21;100.00
26112;BME280;13829;48.990;8.346;2023-05-08T03:04:53;100755.50;;;16.11;100.00
26112;BME280;13829;48.990;8.346;2023-05-08T03:07:24;100756.41;;;16.07;100.00
26112;BME280;13829;48.990;8.346;2023-05-08T03:10:00;100755.50;;;16.11;100.00
26112;BME280;13829;48.990;8.346;2023-05-08T03:12:31;100753.72;;;16.12;100.00
26112;BME280;13829;48.990;8.346;2023-05-08T03:15:06;100752.78;;;16.18;100.00
26112;BME280;13829;48.990;8.346;2023-05-08T03:17:37;100751.97;;;16.09;100.00
26112;BME280;13829;48.990;8.346;2023-05-08T03:20:08;100743.00;;;16.20;100.00
26112;BME280;13829;48.990;8.346;2023-05-08T03:22:42;100749.16;;;16.23;100.00
26112;BME280;13829;48.990;8.346;2023-05-08T03:25:11;100749.09;;;16.28;100.00
26112;BME280;13829;48.990;8.346;2023-05-08T03:27:40;100746.16;;;16.50;100.00
26112;BME280;13829;48.990;8.346;2023-05-08T03:30:10;100741.63;;;16.56;100.00
26112;BME280;13829;48.990;8.346;2023-05-08T03:32:39;100745.16;;;16.55;100.00
26112;BME280;13829;48.990;8.346;2023-05-08T03:35:08;100752.41;;;16.45;100.00
26112;BME280;13829;48.990;8.346;2023-05-08T03:37:36;100749.84;;;16.36;100.00
26112;BME280;13829;48.990;8.346;2023-05-08T03:40:07;100752.53;;;16.35;100.00
26112;BME280;13829;48.990;8.346;2023-05-08T03:42:36;100763.16;;;16.35;100.00
26112;BME280;13829;48.990;8.346;2023-05-08T03:45:08;100759.59;;;16.36;100.00
26112;BME280;13829;48.990;8.346;2023-05-08T03:47:35;100757.88;;;16.33;100.00
26112;BME280;13829;48.990;8.346;2023-05-08T03:50:04;100767.50;;;16.40;100.00
26112;BME280;13829;48.990;8.346;2023-05-08T03:52:32;100763.09;;;16.38;100.00
26112;BME280;13829;48.990;8.346;2023-05-08T03:54:59;100768.44;;;16.36;100.00
26112;BME280;13829;48.990;8.346;2023-05-08T03:57:34;100763.09;;;16.38;100.00
26112;BME280;13829;48.990;8.346;2023-05-08T04:00:13;100768.41;;;16.39;100.00
26112;BME280;13829;48.990;8.346;2023-05-08T04:02:49;100766.69;;;16.37;100.00
26112;BME280;13829;48.990;8.346;2023-05-08T04:05:36;100766.69;;;16.37;100.00
26112;BME280;13829;48.990;8.346;2023-05-08T04:08:15;100772.91;;;16.34;100.00
26112;BME280;13829;48.990;8.346;2023-05-08T04:10:48;100765.75;;;16.39;100.00
26112;BME280;13829;48.990;8.346;2023-05-08T04:13:26;100766.63;;;16.40;100.00
26112;BME280;13829;48.990;8.346;2023-05-08T04:16:01;100771.03;;;16.41;100.00
26112;BME280;13829;48.990;8.346;2023-05-08T04:18:36;100772.78;;;16.43;100.00
26112;BME280;13829;48.990;8.346;2023-05-08T04:21:10;100770.94;;;16.49;100.00
26112;BME280;13829;48.990;8.346;2023-05-08T04:23:40;100767.41;;;16.46;100.00
26112;BME280;13829;48.990;8.346;2023-05-08T04:26:09;100771.03;;;16.41;100.00
26112;BME280;13829;48.990;8.346;2023-05-08T04:28:40;100772.81;;;16.42;100.00
26112;BME280;13829;48.990;8.346;2023-05-08T04:31:08;100773.72;;;16.39;100.00
26112;BME280;13829;48.990;8.346;2023-05-08T04:33:36;100778.09;;;16.40;100.00
26112;BME280;13829;48.990;8.346;2023-05-08T04:36:04;100764.03;;;16.35;100.00
26112;BME280;13829;48.990;8.346;2023-05-08T04:38:35;100772.09;;;16.27;100.00
26112;BME280;13829;48.990;8.346;2023-05-08T04:41:03;100764.19;;;16.21;100.00
26112;BME280;13829;48.990;8.346;2023-05-08T04:43:30;100778.34;;;16.23;100.00
26112;BME280;13829;48.990;8.346;2023-05-08T04:45:58;100774.56;;;16.41;100.00
26112;BME280;13829;48.990;8.346;2023-05-08T04:48:25;100774.44;;;16.49;100.00
26112;BME280;13829;48.990;8.346;2023-05-08T04:50:52;100777.03;;;16.57;100.00
26112;BME280;13829;48.990;8.346;2023-05-08T04:53:19;100785.84;;;16.59;100.00
26112;BME280;13829;48.990;8.346;2023-05-08T04:55:46;100784.03;;;16.61;100.00
26112;BME280;13829;48.990;8.346;2023-05-08T04:58:13;100792.00;;;16.61;100.00
26112;BME280;13829;48.990;8.346;2023-05-08T05:00:39;100788.50;;;16.59;100.00
26112;BME280;13829;48.990;8.346;2023-05-08T05:03:08;100787.53;;;16.65;100.00
26112;BME280;13829;48.990;8.346;2023-05-08T05:05:35;100796.31;;;16.68;100.00
26112;BME280;13829;48.990;8.346;2023-05-08T05:08:02;100800.63;;;16.77;100.00
26112;BME280;13829;48.990;8.346;2023-05-08T05:10:29;100806.09;;;16.66;100.00
26112;BME280;13829;48.990;8.346;2023-05-08T05:12:56;100800.88;;;16.60;100.00
26112;BME280;13829;48.990;8.346;2023-05-08T05:15:23;100807.06;;;16.62;100.00
26112;BME280;13829;48.990;8.346;2023-05-08T05:17:50;100802.50;;;16.70;100.00
26112;BME280;13829;48.990;8.346;2023-05-08T05:20:18;100813.34;;;16.55;100.00
26112;BME280;13829;48.990;8.346;2023-05-08T05:22:45;100806.31;;;16.51;100.00
26112;BME280;13829;48.990;8.346;2023-05-08T05:25:12;100807.25;;;16.48;100.00
26112;BME280;13829;48.990;8.346;2023-05-08T05:27:40;100811.56;;;16.54;100.00
26112;BME280;13829;48.990;8.346;2023-05-08T05:30:07;100811.34;;;16.69;100.00
26112;BME280;13829;48.990;8.346;2023-05-08T05:32:34;100815.91;;;16.61;100.00
26112;BME280;13829;48.990;8.346;2023-05-08T05:35:01;100816.69;;;16.68;100.00
26112;BME280;13829;48.990;8.346;2023-05-08T05:37:30;100816.75;;;16.63;100.00
26112;BME280;13829;48.990;8.346;2023-05-08T05:39:56;100813.03;;;16.76;100.00
26112;BME280;13829;48.990;8.346;2023-05-08T05:42:23;100813.28;;;16.58;100.00
26112;BME280;13829;48.990;8.346;2023-05-08T05:44:50;100814.97;;;16.65;100.00
26112;BME280;13829;48.990;8.346;2023-05-08T05:47:17;100822.00;;;16.71;100.00
26112;BME280;13829;48.990;8.346;2023-05-08T05:49:44;100825.44;;;16.77;100.00
26112;BME280;13829;48.990;8.346;2023-05-08T05:52:12;100826.47;;;16.67;100.00
26112;BME280;13829;48.990;8.346;2023-05-08T05:54:40;100828.97;;;16.76;100.00
26112;BME280;13829;48.990;8.346;2023-05-08T05:57:07;100828.19;;;16.70;100.00
26112;BME280;13829;48.990;8.346;2023-05-08T05:59:34;100829.03;;;16.73;100.00
26112;BME280;13829;48.990;8.346;2023-05-08T06:02:01;100826.31;;;16.76;100.00
26112;BME280;13829;48.990;8.346;2023-05-08T06:04:28;100823.66;;;16.76;100.00
26112;BME280;13829;48.990;8.346;2023-05-08T06:06:56;100824.44;;;16.85;100.00
26112;BME280;13829;48.990;8.346;2023-05-08T06:09:23;100827.13;;;16.82;100.00
26112;BME280;13829;48.990;8.346;2023-05-08T06:11:51;100836.91;;;16.78;100.00
26112;BME280;13829;48.990;8.346;2023-05-08T06:14:18;100835.06;;;16.83;100.00
26112;BME280;13829;48.990;8.346;2023-05-08T06:16:45;100835.19;;;16.75;100.00
26112;BME280;13829;48.990;8.346;2023-05-08T06:19:11;100831.81;;;16.62;100.00
26112;BME280;13829;48.990;8.346;2023-05-08T06:21:38;100836.25;;;16.62;100.00
26112;BME280;13829;48.990;8.346;2023-05-08T06:24:05;100833.53;;;16.67;100.00
26112;BME280;13829;48.990;8.346;2023-05-08T06:26:33;100835.25;;;16.69;100.00
26112;BME280;13829;48.990;8.346;2023-05-08T06:29:01;100837.91;;;16.69;100.00
26112;BME280;13829;48.990;8.346;2023-05-08T06:31:28;100840.50;;;16.75;100.00
26112;BME280;13829;48.990;8.346;2023-05-08T06:33:55;100844.97;;;16.73;100.00
26112;BME280;13829;48.990;8.346;2023-05-08T06:36:22;100846.75;;;16.71;100.00
26112;BME280;13829;48.990;8.346;2023-05-08T06:38:49;100843.19;;;16.74;100.00
26112;BME280;13829;48.990;8.346;2023-05-08T06:41:15;100838.72;;;16.76;100.00
26112;BME280;13829;48.990;8.346;2023-05-08T06:43:42;100843.88;;;16.87;100.00
26112;BME280;13829;48.990;8.346;2023-05-08T06:46:11;100844.72;;;16.92;100.00
26112;BME280;13829;48.990;8.346;2023-05-08T06:48:38;100839.47;;;16.86;100.00
26112;BME280;13829;48.990;8.346;2023-05-08T06:51:05;100838.59;;;16.85;100.00
26112;BME280;13829;48.990;8.346;2023-05-08T06:53:31;100838.44;;;16.99;100.00
26112;BME280;13829;48.990;8.346;2023-05-08T06:55:58;100837.31;;;17.12;100.00
26112;BME280;13829;48.990;8.346;2023-05-08T06:58:25;100844.50;;;17.07;100.00
26112;BME280;13829;48.990;8.346;2023-05-08T07:00:52;100834.69;;;17.14;100.00
26112;BME280;13829;48.990;8.346;2023-05-08T07:03:21;100837.16;;;17.25;100.00
26112;BME280;13829;48.990;8.346;2023-05-08T07:05:48;100838.88;;;17.29;100.00
26112;BME280;13829;48.990;8.346;2023-05-08T07:08:14;100837.97;;;17.28;100.00
26112;BME280;13829;48.990;8.346;2023-05-08T07:10:41;100838.53;;;17.49;100.00
26112;BME280;13829;48.990;8.346;2023-05-08T07:13:08;100839.53;;;17.43;100.00
26112;BME280;13829;48.990;8.346;2023-05-08T07:15:35;100837.03;;;17.34;100.00
26112;BME280;13829;48.990;8.346;2023-05-08T07:18:04;100838.72;;;17.38;100.00
26112;BME280;13829;48.990;8.346;2023-05-08T07:20:32;100845.47;;;17.58;100.00
26112;BME280;13829;48.990;8.346;2023-05-08T07:23:00;100841.91;;;17.59;100.00
26112;BME280;13829;48.990;8.346;2023-05-08T07:25:27;100838.88;;;17.81;100.00
26112;BME280;13829;48.990;8.346;2023-05-08T07:27:54;100836.09;;;17.87;100.00
26112;BME280;13829;48.990;8.346;2023-05-08T07:30:21;100837.19;;;17.76;100.00
26112;BME280;13829;48.990;8.346;2023-05-08T07:32:48;100844.75;;;18.01;100.00
26112;BME280;13829;48.990;8.346;2023-05-08T07:35:15;100849.47;;;17.84;100.00
26112;BME280;13829;48.990;8.346;2023-05-08T07:37:44;100841.44;;;17.87;100.00
26112;BME280;13829;48.990;8.346;2023-05-08T07:40:11;100844.16;;;17.84;100.00
26112;BME280;13829;48.990;8.346;2023-05-08T07:42:43;100840.41;;;17.96;100.00
26112;BME280;13829;48.990;8.346;2023-05-08T07:45:11;100846.41;;;18.07;100.00
26112;BME280;13829;48.990;8.346;2023-05-08T07:47:48;100845.44;;;18.11;100.00
26112;BME280;13829;48.990;8.346;2023-05-08T07:50:15;100851.59;;;18.15;100.00
26112;BME280;13829;48.990;8.346;2023-05-08T07:52:43;100857.06;;;18.07;100.00
26112;BME280;13829;48.990;8.346;2023-05-08T07:55:10;100850.84;;;18.08;100.00
26112;BME280;13829;48.990;8.346;2023-05-08T07:57:40;100854.47;;;18.02;100.00
26112;BME280;13829;48.990;8.346;2023-05-08T08:00:11;100855.25;;;18.07;100.00
26112;BME280;13829;48.990;8.346;2023-05-08T08:02:38;100859.06;;;17.94;100.00
26112;BME280;13829;48.990;8.346;2023-05-08T08:05:11;100862.56;;;17.96;100.00
26112;BME280;13829;48.990;8.346;2023-05-08T08:07:55;100860.13;;;17.84;100.00
26112;BME280;13829;48.990;8.346;2023-05-08T08:10:28;100856.41;;;17.91;100.00
26112;BME280;13829;48.990;8.346;2023-05-08T08:12:56;100862.94;;;17.73;100.00
26112;BME280;13829;48.990;8.346;2023-05-08T08:15:25;100868.34;;;17.68;100.00
26112;BME280;13829;48.990;8.346;2023-05-08T08:17:59;100860.50;;;17.60;100.00
26112;BME280;13829;48.990;8.346;2023-05-08T08:20:28;100860.59;;;17.54;100.00
26112;BME280;13829;48.990;8.346;2023-05-08T08:23:02;100860.75;;;17.45;100.00
26112;BME280;13829;48.990;8.346;2023-05-08T08:25:31;100866.13;;;17.40;100.00
26112;BME280;13829;48.990;8.346;2023-05-08T08:28:01;100868.69;;;17.47;100.00
26112;BME280;13829;48.990;8.346;2023-05-08T08:30:28;100866.22;;;17.36;100.00
26112;BME280;13829;48.990;8.346;2023-05-08T08:32:57;100867.03;;;17.41;100.00
26112;BME280;13829;48.990;8.346;2023-05-08T08:35:34;100871.34;;;17.50;100.00
26112;BME280;13829;48.990;8.346;2023-05-08T08:38:07;100865.22;;;17.44;100.00
26112;BME280;13829;48.990;8.346;2023-05-08T08:40:40;100859.16;;;17.35;100.00
26112;BME280;13829;48.990;8.346;2023-05-08T08:43:08;100860.91;;;17.36;100.00
26112;BME280;13829;48.990;8.346;2023-05-08T08:45:39;100866.84;;;17.52;100.00
26112;BME280;13829;48.990;8.346;2023-05-08T08:48:15;100864.09;;;17.58;100.00
26112;BME280;13829;48.990;8.346;2023-05-08T08:50:49;100864.06;;;17.61;100.00
26112;BME280;13829;48.990;8.346;2023-05-08T08:53:25;100861.03;;;17.83;100.00
26112;BME280;13829;48.990;8.346;2023-05-08T08:56:00;100865.25;;;17.93;100.00
26112;BME280;13829;48.990;8.346;2023-05-08T08:58:35;100867.03;;;17.96;100.00
26112;BME280;13829;48.990;8.346;2023-05-08T09:01:06;100866.69;;;18.13;100.00
26112;BME280;13829;48.990;8.346;2023-05-08T09:03:40;100870.63;;;18.40;100.00
26112;BME280;13829;48.990;8.346;2023-05-08T09:06:11;100870.22;;;18.60;100.00
26112;BME280;13829;48.990;8.346;2023-05-08T09:08:41;100872.69;;;18.69;100.00
26112;BME280;13829;48.990;8.346;2023-05-08T09:11:08;100878.28;;;18.99;100.00
26112;BME280;13829;48.990;8.346;2023-05-08T09:13:36;100872.41;;;18.82;100.00
26112;BME280;13829;48.990;8.346;2023-05-08T09:16:06;100870.47;;;18.88;100.00
26112;BME280;13829;48.990;8.346;2023-05-08T09:18:35;100877.25;;;19.06;100.00
26112;BME280;13829;48.990;8.346;2023-05-08T09:21:07;100870.47;;;19.31;100.00
26112;BME280;13829;48.990;8.346;2023-05-08T09:23:52;100868.38;;;19.44;100.00
26112;BME280;13829;48.990;8.346;2023-05-08T09:26:33;100875.78;;;19.67;100.00
26112;BME280;13829;48.990;8.346;2023-05-08T09:29:11;100874.03;;;19.66;100.00
26112;BME280;13829;48.990;8.346;2023-05-08T09:31:44;100875.94;;;19.62;100.00
26112;BME280;13829;48.990;8.346;2023-05-08T09:34:24;100877.22;;;19.46;100.00
26112;BME280;13829;48.990;8.346;2023-05-08T09:36:55;100882.22;;;19.58;100.00
26112;BME280;13829;48.990;8.346;2023-05-08T09:39:27;100880.91;;;19.76;100.00
26112;BME280;13829;48.990;8.346;2023-05-08T09:42:01;100888.03;;;19.76;100.00
26112;BME280;13829;48.990;8.346;2023-05-08T09:44:42;100889.47;;;19.53;100.00
26112;BME280;13829;48.990;8.346;2023-05-08T09:47:12;100889.44;;;19.54;100.00
26112;BME280;13829;48.990;8.346;2023-05-08T09:50:02;100889.41;;;19.56;100.00
26112;BME280;13829;48.990;8.346;2023-05-08T09:52:33;100881.88;;;19.74;100.00
26112;BME280;13829;48.990;8.346;2023-05-08T09:55:03;100885.19;;;19.85;100.00
26112;BME280;13829;48.990;8.346;2023-05-08T09:57:34;100889.06;;;19.70;100.00
26112;BME280;13829;48.990;8.346;2023-05-08T10:00:08;100901.06;;;19.52;100.00
26112;BME280;13829;48.990;8.346;2023-05-08T10:02:53;100891.53;;;19.42;100.00
26112;BME280;13829;48.990;8.346;2023-05-08T10:05:29;100896.19;;;19.33;100.00
26112;BME280;13829;48.990;8.346;2023-05-08T10:08:15;100896.13;;;19.35;100.00
26112;BME280;13829;48.990;8.346;2023-05-08T10:10:43;100897.38;;;19.20;100.00
26112;BME280;13829;48.990;8.346;2023-05-08T10:13:17;100887.09;;;19.40;100.00
26112;BME280;13829;48.990;8.346;2023-05-08T10:15:54;100889.53;;;19.51;100.00
26112;BME280;13829;48.990;8.346;2023-05-08T10:18:36;100888.28;;;19.29;100.00
26112;BME280;13829;48.990;8.346;2023-05-08T10:21:08;100882.75;;;19.36;100.00
26112;BME280;13829;48.990;8.346;2023-05-08T10:23:41;100888.66;;;19.49;100.00
26112;BME280;13829;48.990;8.346;2023-05-08T10:26:13;100892.91;;;19.58;100.00
26112;BME280;13829;48.990;8.346;2023-05-08T10:28:54;100886.13;;;19.45;100.00
26112;BME280;13829;48.990;8.346;2023-05-08T10:31:24;100884.22;;;19.50;100.00
26112;BME280;13829;48.990;8.346;2023-05-08T10:33:55;100879.84;;;19.47;100.00
26112;BME280;13829;48.990;8.346;2023-05-08T10:36:23;100887.72;;;19.52;100.00
26112;BME280;13829;48.990;8.346;2023-05-08T10:38:51;100882.38;;;19.52;100.00
26112;BME280;13829;48.990;8.346;2023-05-08T10:41:19;100885.28;;;19.43;100.00
26112;BME280;13829;48.990;8.346;2023-05-08T10:43:50;100887.63;;;19.56;100.00
26112;BME280;13829;48.990;8.346;2023-05-08T10:46:27;100889.09;;;19.68;100.00
26112;BME280;13829;48.990;8.346;2023-05-08T10:49:15;100882.31;;;19.55;100.00
26112;BME280;13829;48.990;8.346;2023-05-08T10:52:00;100883.88;;;19.64;100.00
26112;BME280;13829;48.990;8.346;2023-05-08T10:54:46;100873.88;;;19.74;100.00
26112;BME280;13829;48.990;8.346;2023-05-08T10:57:14;100872.88;;;19.78;100.00
26112;BME280;13829;48.990;8.346;2023-05-08T10:59:46;100872.16;;;19.71;100.00
26112;BME280;13829;48.990;8.346;2023-05-08T11:02:13;100877.22;;;19.46;100.00
26112;BME280;13829;48.990;8.346;2023-05-08T11:04:41;100869.75;;;19.60;100.00
26112;BME280;13829;48.990;8.346;2023-05-08T11:07:08;100874.72;;;19.38;100.00
26112;BME280;13829;48.990;8.346;2023-05-08T11:09:46;100873.81;;;19.01;100.00
26112;BME280;13829;48.990;8.346;2023-05-08T11:12:24;100874.59;;;19.05;100.00
26112;BME280;13829;48.990;8.346;2023-05-08T11:15:01;100872.00;;;19.41;100.00
26112;BME280;13829;48.990;8.346;2023-05-08T11:17:29;100867.06;;;19.60;100.00
26112;BME280;13829;48.990;8.346;2023-05-08T11:19:58;100879.75;;;19.88;100.00
26112;BME280;13829;48.990;8.346;2023-05-08T11:22:28;100875.78;;;19.67;100.00
26112;BME280;13829;48.990;8.346;2023-05-08T11:24:59;100871.44;;;19.27;100.00
26112;BME280;13829;48.990;8.346;2023-05-08T11:30:46;100866.31;;;19.17;100.00
26112;BME280;13829;48.990;8.346;2023-05-08T11:33:16;100863.31;;;19.31;100.00
26112;BME280;13829;48.990;8.346;2023-05-08T11:35:53;100869.28;;;19.43;100.00
26112;BME280;13829;48.990;8.346;2023-05-08T11:38:24;100860.75;;;19.27;100.00
26112;BME280;13829;48.990;8.346;2023-05-08T11:40:57;100869.78;;;19.21;100.00
26112;BME280;13829;48.990;8.346;2023-05-08T11:43:31;100869.59;;;19.29;100.00
26112;BME280;13829;48.990;8.346;2023-05-08T11:46:05;100856.84;;;19.42;100.00
26112;BME280;13829;48.990;8.346;2023-05-08T11:48:34;100858.38;;;19.88;100.00
26112;BME280;13829;48.990;8.346;2023-05-08T11:51:02;100859.72;;;20.04;100.00
26112;BME280;13829;48.990;8.346;2023-05-08T11:53:31;100860.47;;;20.10;100.00
26112;BME280;13829;48.990;8.346;2023-05-08T11:55:59;100858.13;;;19.97;100.00
26112;BME280;13829;48.990;8.346;2023-05-08T11:58:26;100843.97;;;20.27;100.00
26112;BME280;13829;48.990;8.346;2023-05-08T12:00:53;100851.72;;;20.04;100.00
26112;BME280;13829;48.990;8.346;2023-05-08T12:03:23;100857.31;;;19.95;100.00
26112;BME280;13829;48.990;8.346;2023-05-08T12:05:54;100861.22;;;19.46;100.00
26112;BME280;13829;48.990;8.346;2023-05-08T12:08:21;100847.19;;;19.37;100.00
26112;BME280;13829;48.990;8.346;2023-05-08T12:10:50;100859.38;;;19.48;100.00
26112;BME280;13829;48.990;8.346;2023-05-08T12:13:18;100854.59;;;19.61;100.00
26112;BME280;13829;48.990;8.346;2023-05-08T12:15:46;100852.94;;;19.56;100.00
26112;BME280;13829;48.990;8.346;2023-05-08T12:18:14;100860.97;;;19.55;100.00
26112;BME280;13829;48.990;8.346;2023-05-08T12:20:43;100854.59;;;19.61;100.00
26112;BME280;13829;48.990;8.346;2023-05-08T12:23:10;100853.47;;;19.69;100.00
26112;BME280;13829;48.990;8.346;2023-05-08T12:25:38;100858.00;;;19.67;100.00
26112;BME280;13829;48.990;8.346;2023-05-08T12:28:06;100844.03;;;19.92;100.00
26112;BME280;13829;48.990;8.346;2023-05-08T12:30:33;100848.78;;;20.45;100.00
26112;BME280;13829;48.990;8.346;2023-05-08T12:33:01;100852.13;;;20.85;100.00
26112;BME280;13829;48.990;8.346;2023-05-08T12:35:29;100850.56;;;20.78;100.00
26112;BME280;13829;48.990;8.346;2023-05-08T12:38:02;100856.25;;;20.95;100.00
26112;BME280;13829;48.990;8.346;2023-05-08T12:40:34;100855.03;;;21.06;97.27
26112;BME280;13829;48.990;8.346;2023-05-08T12:43:17;100852.97;;;21.14;97.33
26112;BME280;13829;48.990;8.346;2023-05-08T12:45:49;100845.53;;;20.65;99.76
26112;BME280;13829;48.990;8.346;2023-05-08T12:48:16;100847.00;;;20.46;100.00
26112;BME280;13829;48.990;8.346;2023-05-08T12:50:44;100849.88;;;20.71;100.00
26112;BME280;13829;48.990;8.346;2023-05-08T12:53:16;100863.19;;;20.73;94.56
26112;BME280;13829;48.990;8.346;2023-05-08T12:55:51;100853.03;;;20.52;95.46
26112;BME280;13829;48.990;8.346;2023-05-08T12:58:19;100852.75;;;20.32;97.54
26112;BME280;13829;48.990;8.346;2023-05-08T13:00:49;100855.31;;;20.03;99.39
26112;BME280;13829;48.990;8.346;2023-05-08T13:03:25;100854.88;;;19.86;100.00
26112;BME280;13829;48.990;8.346;2023-05-08T13:05:55;100852.19;;;20.19;100.00